Time;durP1;ratioP1;P1;durP2;ratioP2;P2;SDS_P1;SDS_P2;PMS_P1;PMS_P2;Temp;Humidity;BMP_temperature;BMP_pressure;BME280_temperature;BME280_humidity;BME280_pressure;Samples;Min_cycle;Max_cycle;Signal;HPM_P1;HPM_P2
2021/05/15 00:01:30;;;;;;;2.00;1.63;;;;;;;7.13;72.15;93146.94;5051118;28;20029;-44
2021/05/15 00:03:56;;;;;;;1.42;1.00;;;;;;;7.21;72.43;93149.78;5050985;28;20461;-44
2021/05/15 00:06:23;;;;;;;3.80;1.25;;;;;;;7.26;71.53;93140.66;5053647;28;20020;-44
2021/05/15 00:08:48;;;;;;;2.10;2.00;;;;;;;7.22;70.78;93145.75;5050924;28;20032;-44
2021/05/15 00:11:13;;;;;;;1.20;0.90;;;;;;;7.35;70.39;93146.44;5051144;28;20025;-43
2021/05/15 00:13:39;;;;;;;1.58;1.27;;;;;;;7.24;70.88;93151.44;5051043;28;20501;-45
2021/05/15 00:16:05;;;;;;;2.88;0.90;;;;;;;6.98;71.74;93149.53;5050661;28;20016;-44
2021/05/15 00:18:30;;;;;;;0.95;0.65;;;;;;;6.89;71.63;93149.97;5050263;28;20017;-48
2021/05/15 00:20:55;;;;;;;3.78;3.20;;;;;;;6.86;71.59;93149.03;5050450;28;20028;-45
2021/05/15 00:23:21;;;;;;;1.15;1.02;;;;;;;6.63;73.14;93152.78;5050649;28;20013;-47
2021/05/15 00:25:46;;;;;;;0.80;0.60;;;;;;;6.66;73.54;93157.22;5032728;28;20021;-45
2021/05/15 00:28:12;;;;;;;0.70;0.70;;;;;;;6.56;74.01;93147.97;5050545;28;20490;-45
2021/05/15 00:30:37;;;;;;;0.93;0.85;;;;;;;6.78;74.31;93142.72;5032368;28;20416;-45
2021/05/15 00:33:03;;;;;;;1.02;0.98;;;;;;;6.95;73.95;93144.38;5050063;28;20033;-45
2021/05/15 00:35:28;;;;;;;1.20;1.10;;;;;;;7.11;73.47;93137.75;5049987;28;20036;-46
2021/05/15 00:37:54;;;;;;;3.25;1.90;;;;;;;7.11;73.21;93133.00;5050280;28;20021;-44
2021/05/15 00:40:19;;;;;;;4.60;1.23;;;;;;;7.00;74.52;93138.75;5050391;28;20417;-47
2021/05/15 00:42:47;;;;;;;0.38;0.38;;;;;;;7.28;74.23;93135.38;5049749;28;20414;-45
2021/05/15 00:45:14;;;;;;;2.78;2.10;;;;;;;7.39;73.32;93141.34;5034217;28;20552;-43
2021/05/15 00:47:40;;;;;;;1.15;1.05;;;;;;;7.51;72.48;93144.56;5049872;28;20657;-42
2021/05/15 00:50:06;;;;;;;3.55;1.77;;;;;;;7.51;71.09;93139.06;5049979;28;20020;-43
2021/05/15 00:52:36;;;;;;;2.40;1.98;;;;;;;7.52;70.67;93140.53;5049655;28;20020;-45
2021/05/15 00:55:10;;;;;;;3.22;2.00;;;;;;;7.49;71.78;93136.13;5049793;28;20124;-46
2021/05/15 00:57:36;;;;;;;13.48;3.08;;;;;;;7.52;71.73;93130.28;5047796;28;20021;-42
2021/05/15 01:00:04;;;;;;;5.95;3.67;;;;;;;7.40;72.04;93134.59;5049824;28;20037;-43
2021/05/15 01:02:30;;;;;;;12.73;8.77;;;;;;;7.49;71.83;93136.13;5046802;28;20110;-44
2021/05/15 01:04:55;;;;;;;8.30;4.45;;;;;;;7.56;72.09;93138.94;5049583;28;20096;-42
2021/05/15 01:07:21;;;;;;;2.53;1.90;;;;;;;7.57;72.70;93134.19;5051615;28;20406;-42
2021/05/15 01:09:46;;;;;;;3.78;1.77;;;;;;;7.54;71.85;93133.25;5049044;28;20103;-44
2021/05/15 01:12:12;;;;;;;2.15;1.38;;;;;;;7.22;72.77;93135.50;5048579;28;20032;-42
2021/05/15 01:14:38;;;;;;;3.97;1.83;;;;;;;7.11;74.10;93129.53;5049356;28;20024;-43
2021/05/15 01:17:07;;;;;;;2.13;1.65;;;;;;;7.18;73.49;93132.38;5048912;28;20024;-42
2021/05/15 01:19:32;;;;;;;2.03;1.05;;;;;;;7.30;72.85;93132.81;5049454;28;20457;-43
2021/05/15 01:21:58;;;;;;;7.43;1.27;;;;;;;7.24;73.18;93132.97;5049291;28;20033;-43
2021/05/15 01:24:24;;;;;;;3.53;1.75;;;;;;;7.09;73.11;93126.59;5049051;28;20025;-45
2021/05/15 01:26:50;;;;;;;0.93;0.85;;;;;;;7.23;72.90;93131.50;5049313;28;20021;-45
2021/05/15 01:29:15;;;;;;;3.00;0.95;;;;;;;7.18;73.57;93123.38;5049417;28;20099;-44
2021/05/15 01:31:41;;;;;;;2.50;1.60;;;;;;;6.95;74.36;93125.16;5049354;28;20021;-44
2021/05/15 01:34:06;;;;;;;2.88;1.48;;;;;;;6.73;75.15;93120.91;5049227;28;20013;-43
2021/05/15 01:36:39;;;;;;;1.23;0.93;;;;;;;6.73;74.94;93107.19;5049426;28;20020;-44
2021/05/15 01:39:05;;;;;;;2.17;1.50;;;;;;;6.80;74.95;93117.50;5048938;28;20017;-44
2021/05/15 01:41:30;;;;;;;1.52;1.25;;;;;;;6.92;74.25;93110.50;5048426;28;20032;-45
2021/05/15 01:43:58;;;;;;;1.75;1.60;;;;;;;6.87;74.48;93120.31;5048866;28;20035;-44
2021/05/15 01:46:24;;;;;;;3.30;2.25;;;;;;;6.87;74.51;93114.84;5047892;28;20043;-46
2021/05/15 01:48:50;;;;;;;2.60;1.92;;;;;;;6.79;75.15;93116.03;5048538;28;20029;-44
2021/05/15 01:51:15;;;;;;;5.93;3.63;;;;;;;6.99;74.22;93112.59;5045579;28;20048;-42
2021/05/15 01:53:47;;;;;;;4.32;2.17;;;;;;;7.06;73.93;93116.69;5047609;28;20025;-43
2021/05/15 01:56:14;;;;;;;4.65;2.58;;;;;;;7.14;73.85;93120.25;5048065;28;20090;-44
2021/05/15 01:58:40;;;;;;;3.03;2.25;;;;;;;7.11;74.07;93113.06;5047743;28;20033;-45
2021/05/15 02:01:06;;;;;;;2.80;2.25;;;;;;;7.02;74.76;93119.75;5048301;28;20032;-45
2021/05/15 02:03:33;;;;;;;3.75;2.22;;;;;;;6.94;75.35;93118.94;5048072;28;20457;-44
2021/05/15 02:05:59;;;;;;;5.13;2.50;;;;;;;6.76;75.50;93109.59;5049032;28;20116;-44
2021/05/15 02:08:24;;;;;;;4.15;2.38;;;;;;;6.67;76.31;93112.78;5048761;28;20112;-47
2021/05/15 02:10:51;;;;;;;2.70;2.08;;;;;;;6.81;75.88;93118.97;5048821;28;21317;-44
2021/05/15 02:13:18;;;;;;;3.42;3.05;;;;;;;6.73;76.27;93112.69;5046206;28;20013;-46
2021/05/15 02:15:45;;;;;;;2.85;1.77;;;;;;;6.78;76.01;93118.03;5048803;28;20394;-46
2021/05/15 02:18:12;;;;;;;1.33;1.23;;;;;;;6.88;75.62;93116.31;5048459;28;20029;-43
2021/05/15 02:20:38;;;;;;;1.92;1.42;;;;;;;6.74;75.78;93116.88;5048731;28;20017;-45
2021/05/15 02:23:03;;;;;;;1.05;0.77;;;;;;;6.86;75.81;93109.91;5048804;28;20036;-45
2021/05/15 02:25:29;;;;;;;3.35;1.58;;;;;;;6.89;75.21;93120.53;5047212;28;20025;-48
2021/05/15 02:27:54;;;;;;;4.63;1.77;;;;;;;6.99;75.98;93114.59;5050949;28;20024;-48
2021/05/15 02:30:21;;;;;;;3.80;1.42;;;;;;;7.05;75.55;93115.19;5052757;28;20020;-50
2021/05/15 02:32:47;;;;;;;1.23;1.08;;;;;;;7.04;74.98;93106.22;5052346;28;20513;-43
2021/05/15 02:35:13;;;;;;;1.10;0.73;;;;;;;7.04;73.78;93111.72;5052290;28;20063;-45
2021/05/15 02:37:39;;;;;;;1.40;1.20;;;;;;;7.09;73.56;93113.59;5052523;28;20025;-44
2021/05/15 02:40:07;;;;;;;1.90;1.20;;;;;;;7.18;72.78;93113.16;5034411;28;20482;-45
2021/05/15 02:42:33;;;;;;;1.67;1.35;;;;;;;7.23;72.91;93109.53;5052399;28;20075;-43
2021/05/15 02:44:59;;;;;;;3.72;1.73;;;;;;;7.02;73.33;93108.75;5051885;28;20047;-44
2021/05/15 02:47:24;;;;;;;1.75;1.65;;;;;;;6.81;74.34;93110.75;5052388;28;20474;-46
2021/05/15 02:49:50;;;;;;;3.75;2.30;;;;;;;6.84;74.95;93113.16;5052177;28;20032;-46
2021/05/15 02:52:15;;;;;;;4.80;2.53;;;;;;;6.68;75.14;93097.06;5051922;28;20021;-43
2021/05/15 02:54:41;;;;;;;2.08;1.90;;;;;;;6.76;75.19;93112.34;5052221;28;20108;-46
2021/05/15 02:57:07;;;;;;;1.40;1.30;;;;;;;6.78;75.09;93098.09;5052186;28;20021;-44
2021/05/15 02:59:33;;;;;;;1.90;1.55;;;;;;;6.79;74.87;93100.31;5051684;28;20478;-45
2021/05/15 03:01:59;;;;;;;2.78;1.73;;;;;;;6.94;74.66;93105.22;5034243;28;20108;-44
2021/05/15 03:04:24;;;;;;;2.75;1.75;;;;;;;6.98;74.86;93105.63;5052105;28;20009;-45
2021/05/15 03:06:49;;;;;;;2.22;1.67;;;;;;;6.66;74.82;93116.81;5063472;28;20016;-44
2021/05/15 03:09:15;;;;;;;1.40;1.30;;;;;;;6.54;75.60;93110.06;5071512;28;20023;-46
2021/05/15 03:11:40;;;;;;;0.47;0.47;;;;;;;6.42;76.24;93116.31;5070829;28;20028;-46
2021/05/15 03:14:06;;;;;;;0.60;0.60;;;;;;;6.39;76.37;93106.44;5070900;28;20021;-46
2021/05/15 03:16:32;;;;;;;1.25;1.15;;;;;;;6.33;76.48;93120.22;5070401;28;20025;-48
2021/05/15 03:18:58;;;;;;;1.23;1.23;;;;;;;6.40;76.66;93119.59;5070251;28;20543;-45
2021/05/15 03:21:24;;;;;;;1.10;0.88;;;;;;;6.55;76.08;93116.28;5070358;28;20028;-46
2021/05/15 03:23:49;;;;;;;1.30;1.20;;;;;;;6.49;77.05;93123.91;5070141;28;20611;-45
2021/05/15 03:26:15;;;;;;;1.75;1.60;;;;;;;6.65;77.71;93125.56;5071869;28;20020;-48
2021/05/15 03:28:40;;;;;;;1.95;1.58;;;;;;;6.72;76.28;93122.16;5071726;28;20027;-47
2021/05/15 03:31:06;;;;;;;3.70;2.63;;;;;;;6.79;76.10;93124.25;5071773;28;20040;-45
2021/05/15 03:33:31;;;;;;;9.00;4.70;;;;;;;6.88;75.33;93121.81;5071268;28;20027;-43
2021/05/15 03:35:57;;;;;;;16.90;5.50;;;;;;;7.05;74.52;93117.94;5071611;28;20021;-46
2021/05/15 03:38:22;;;;;;;15.65;8.40;;;;;;;7.17;74.22;93116.44;5069301;28;20016;-45
2021/05/15 03:40:47;;;;;;;14.93;7.13;;;;;;;7.24;73.76;93121.97;5071562;28;20028;-45
2021/05/15 03:43:13;;;;;;;5.38;3.67;;;;;;;7.06;74.55;93114.66;5071577;28;20028;-44
2021/05/15 03:45:38;;;;;;;6.15;3.22;;;;;;;6.94;75.68;93115.44;5062142;28;20045;-44
2021/05/15 03:48:04;;;;;;;2.83;1.83;;;;;;;6.84;76.36;93123.41;5050188;28;20029;-46
2021/05/15 03:50:30;;;;;;;3.65;1.45;;;;;;;6.97;76.77;93125.38;5051611;28;20040;-44
2021/05/15 03:52:55;;;;;;;6.20;2.25;;;;;;;7.07;76.15;93118.16;5051526;28;20422;-45
2021/05/15 03:55:21;;;;;;;4.57;2.78;;;;;;;7.17;76.15;93117.16;5051243;28;20418;-47
2021/05/15 03:57:46;;;;;;;3.65;3.05;;;;;;;7.39;75.43;93113.13;5051463;28;20020;-43
2021/05/15 04:00:12;;;;;;;5.30;3.20;;;;;;;7.43;75.10;93121.78;5051307;28;20024;-45
2021/05/15 04:02:38;;;;;;;8.82;5.78;;;;;;;7.55;74.93;93123.75;5051274;28;20033;-45
2021/05/15 04:05:07;;;;;;;9.82;5.18;;;;;;;7.72;74.07;93122.56;5051294;28;20039;-44
2021/05/15 04:07:33;;;;;;;9.05;6.28;;;;;;;7.73;73.22;93110.31;5068532;28;20063;-44
2021/05/15 04:09:58;;;;;;;10.85;7.03;;;;;;;7.94;73.13;93131.00;5070923;28;20572;-45
2021/05/15 04:12:29;;;;;;;26.70;14.55;;;;;;;7.98;73.15;93134.13;5071056;28;20130;-43
2021/05/15 04:15:09;;;;;;;18.60;9.75;;;;;;;8.04;73.56;93126.47;5070830;28;20529;-46
2021/05/15 04:17:35;;;;;;;9.82;6.80;;;;;;;7.80;74.09;93121.34;5071055;28;20035;-45
2021/05/15 04:20:00;;;;;;;13.35;6.05;;;;;;;7.82;75.35;93121.53;5048248;28;20022;-44
2021/05/15 04:22:27;;;;;;;6.65;4.30;;;;;;;8.03;75.05;93116.75;5044693;28;20028;-45
2021/05/15 04:24:53;;;;;;;7.13;3.85;;;;;;;8.29;74.56;93126.84;5049135;28;20096;-45
2021/05/15 04:27:18;;;;;;;9.73;4.40;;;;;;;8.56;74.53;93124.56;5048917;28;20025;-44
2021/05/15 04:29:44;;;;;;;3.13;2.70;;;;;;;8.84;74.36;93122.50;5049015;28;20020;-43
2021/05/15 04:32:10;;;;;;;5.95;2.85;;;;;;;9.03;73.56;93119.44;5049362;28;20017;-43
2021/05/15 04:34:36;;;;;;;7.10;4.47;;;;;;;9.27;72.65;93118.22;5049203;28;20040;-46
2021/05/15 04:37:02;;;;;;;11.48;6.82;;;;;;;9.47;71.77;93120.06;5049415;28;20060;-45
2021/05/15 04:39:28;;;;;;;9.18;5.03;;;;;;;9.58;71.25;93101.16;5050077;28;20040;-43
2021/05/15 04:41:57;;;;;;;6.78;4.13;;;;;;;9.85;70.67;93127.06;5050190;28;20571;-45
2021/05/15 04:44:23;;;;;;;9.32;5.55;;;;;;;9.85;69.66;93112.56;5050478;28;20414;-45
2021/05/15 04:46:49;;;;;;;7.40;4.63;;;;;;;10.07;69.90;93117.31;5049878;28;20053;-46
2021/05/15 04:49:16;;;;;;;7.25;5.18;;;;;;;10.26;69.30;93114.94;5049323;28;20033;-45
2021/05/15 04:51:42;;;;;;;10.35;4.60;;;;;;;10.44;69.25;93108.25;5050210;28;20383;-47
2021/05/15 04:54:08;;;;;;;6.22;4.97;;;;;;;10.62;69.09;93103.63;5047882;28;20083;-47
2021/05/15 04:56:33;;;;;;;7.90;5.88;;;;;;;10.83;69.00;93101.31;5048179;28;20028;-46
2021/05/15 04:58:59;;;;;;;11.30;5.97;;;;;;;10.92;68.14;93105.50;5047888;28;20087;-47
2021/05/15 05:01:24;;;;;;;11.00;6.57;;;;;;;11.03;68.07;93107.88;5047815;28;20035;-49
2021/05/15 05:03:50;;;;;;;8.43;4.28;;;;;;;11.06;68.38;93093.69;5047141;28;20017;-44
2021/05/15 05:06:15;;;;;;;4.38;2.97;;;;;;;11.18;68.03;93089.19;5041665;28;20078;-47
2021/05/15 05:08:41;;;;;;;8.82;3.72;;;;;;;11.29;67.47;93083.22;5060742;28;20029;-45
2021/05/15 05:11:07;;;;;;;7.20;4.07;;;;;;;11.45;68.31;93086.63;5037049;28;20021;-47
2021/05/15 05:13:32;;;;;;;5.15;3.53;;;;;;;11.75;66.99;93075.38;5028454;28;20036;-47
2021/05/15 05:15:58;;;;;;;8.07;3.67;;;;;;;12.07;66.17;93071.75;5028254;28;20084;-50
2021/05/15 05:18:24;;;;;;;13.55;7.03;;;;;;;12.28;65.66;93074.16;5028040;28;20021;-46
2021/05/15 05:20:50;;;;;;;27.02;13.07;;;;;;;12.37;65.35;93063.16;5028119;28;20025;-49
2021/05/15 05:23:15;;;;;;;13.27;7.80;;;;;;;12.46;65.44;93059.00;5027622;28;20109;-49
2021/05/15 05:25:41;;;;;;;9.57;4.70;;;;;;;12.54;65.27;93057.63;5027646;28;20116;-48
2021/05/15 05:28:07;;;;;;;1.73;1.52;;;;;;;12.58;65.02;93048.91;5027903;28;20071;-44
2021/05/15 05:30:32;;;;;;;9.65;2.00;;;;;;;12.64;65.12;93041.81;5027650;28;20079;-45
2021/05/15 05:32:59;;;;;;;1.95;1.35;;;;;;;12.56;64.90;93038.41;5026845;28;20033;-46
2021/05/15 05:35:25;;;;;;;1.42;1.33;;;;;;;12.06;66.54;93037.81;5027927;28;20033;-45
2021/05/15 05:37:50;;;;;;;0.73;0.63;;;;;;;12.23;67.10;93034.34;5027782;28;20426;-45
2021/05/15 05:40:17;;;;;;;2.70;1.65;;;;;;;12.52;67.03;93026.25;5028125;28;20052;-46
2021/05/15 05:42:43;;;;;;;1.75;0.95;;;;;;;12.71;66.31;93031.97;5043543;28;20040;-45
2021/05/15 05:45:11;;;;;;;1.77;1.08;;;;;;;12.92;65.95;93023.94;5052275;28;20551;-46
2021/05/15 05:47:36;;;;;;;2.38;1.30;;;;;;;13.01;65.29;93031.56;5067159;28;20734;-44
2021/05/15 05:50:03;;;;;;;0.80;0.80;;;;;;;13.10;64.74;93010.78;5067347;28;20036;-46
2021/05/15 05:52:28;;;;;;;4.70;0.90;;;;;;;13.38;64.39;93013.66;5067276;28;20056;-47
2021/05/15 05:54:54;;;;;;;1.50;0.85;;;;;;;13.61;63.96;93013.34;5067529;28;20445;-46
2021/05/15 05:57:19;;;;;;;1.40;1.08;;;;;;;13.86;64.31;93016.59;5067335;28;20071;-44
2021/05/15 05:59:45;;;;;;;1.73;1.45;;;;;;;14.07;63.46;93014.03;5067299;28;20401;-46
2021/05/15 06:02:11;;;;;;;0.77;0.77;;;;;;;14.18;61.75;93015.50;5067254;28;20032;-48
2021/05/15 06:04:37;;;;;;;4.53;1.08;;;;;;;14.29;62.54;93014.97;5066903;28;20071;-46
2021/05/15 06:07:02;;;;;;;0.85;0.85;;;;;;;14.36;62.24;93016.84;5054064;28;20053;-45
2021/05/15 06:09:27;;;;;;;2.35;0.85;;;;;;;14.33;61.22;93004.16;5046987;28;20789;-47
2021/05/15 06:11:53;;;;;;;2.30;1.00;;;;;;;14.32;61.51;93011.75;5047178;28;20484;-45
2021/05/15 06:14:18;;;;;;;4.85;3.10;;;;;;;14.46;60.02;93000.94;5047078;28;20028;-46
2021/05/15 06:16:44;;;;;;;7.00;3.13;;;;;;;14.67;60.22;92994.78;5047183;28;20036;-45
2021/05/15 06:19:09;;;;;;;4.03;2.45;;;;;;;14.88;62.47;93001.19;5046614;28;20029;-46
2021/05/15 06:21:35;;;;;;;1.08;0.98;;;;;;;15.03;62.36;92998.06;5046980;28;20129;-45
2021/05/15 06:24:00;;;;;;;2.13;1.85;;;;;;;15.07;61.08;93003.22;5046982;28;20075;-45
2021/05/15 06:26:26;;;;;;;1.67;1.50;;;;;;;15.49;60.44;92997.81;5045276;28;20040;-47
2021/05/15 06:28:51;;;;;;;1.55;1.10;;;;;;;15.81;59.40;93000.00;5046954;28;20025;-44
2021/05/15 06:31:17;;;;;;;0.93;0.88;;;;;;;16.07;57.62;92992.69;5047138;28;20036;-46
2021/05/15 06:33:42;;;;;;;2.38;1.52;;;;;;;16.40;56.81;92999.06;5045807;28;20116;-44
2021/05/15 06:36:08;;;;;;;2.58;1.42;;;;;;;17.03;54.10;92995.47;5047209;28;20067;-45
2021/05/15 06:38:33;;;;;;;1.17;0.70;;;;;;;17.36;50.00;92993.38;5046527;28;20033;-49
2021/05/15 06:40:59;;;;;;;1.48;0.80;;;;;;;17.65;45.21;92995.81;5046813;28;20139;-50
2021/05/15 06:43:24;;;;;;;0.22;0.22;;;;;;;17.84;42.55;92992.81;5046616;28;20037;-45
2021/05/15 06:45:50;;;;;;;0.45;0.40;;;;;;;18.12;41.48;92986.13;5046291;28;20049;-46
2021/05/15 06:48:16;;;;;;;0.63;0.20;;;;;;;18.32;41.80;92983.03;5046759;28;20040;-46
2021/05/15 06:50:42;;;;;;;0.40;0.30;;;;;;;18.54;42.20;92984.31;5046994;28;20032;-44
2021/05/15 06:53:07;;;;;;;0.65;0.50;;;;;;;18.50;42.29;92981.31;5046810;28;20036;-43
2021/05/15 06:55:32;;;;;;;4.18;0.45;;;;;;;18.81;42.48;92982.44;5047574;28;20025;-46
2021/05/15 06:58:03;;;;;;;1.55;0.43;;;;;;;18.89;40.23;92982.13;5047303;28;20025;-44
2021/05/15 07:00:28;;;;;;;0.50;0.32;;;;;;;19.08;41.05;92981.78;5048454;28;20037;-49
2021/05/15 07:02:54;;;;;;;1.55;0.90;;;;;;;19.38;39.65;92977.16;5048736;28;20032;-44
2021/05/15 07:05:19;;;;;;;0.25;0.20;;;;;;;19.97;36.33;92980.97;5048477;28;20024;-45
2021/05/15 07:07:45;;;;;;;3.50;0.57;;;;;;;20.38;36.96;92985.25;5048721;28;20036;-46
2021/05/15 07:10:11;;;;;;;0.38;0.38;;;;;;;20.84;33.83;92981.22;5048618;28;20501;-48
2021/05/15 07:12:36;;;;;;;0.30;0.22;;;;;;;20.84;34.08;92977.69;5048222;28;20071;-44
2021/05/15 07:15:02;;;;;;;0.10;0.10;;;;;;;21.33;33.23;92983.56;5051027;28;20048;-46
2021/05/15 07:17:28;;;;;;;0.63;0.17;;;;;;;21.52;33.86;92986.59;5052375;28;20029;-46
2021/05/15 07:19:54;;;;;;;0.25;0.20;;;;;;;21.75;30.91;92985.53;5052198;28;20056;-46
2021/05/15 07:22:22;;;;;;;0.20;0.20;;;;;;;21.57;31.98;92993.13;5052386;28;20028;-46
2021/05/15 07:24:49;;;;;;;0.20;0.20;;;;;;;21.74;32.67;92984.09;5052083;28;20032;-47
2021/05/15 07:27:15;;;;;;;0.22;0.10;;;;;;;21.86;31.88;92982.56;5052391;28;20037;-45
2021/05/15 07:29:40;;;;;;;3.08;0.28;;;;;;;23.30;33.67;92964.75;5050814;28;20052;-43
2021/05/15 07:32:06;;;;;;;5.72;1.17;;;;;;;25.22;28.24;92978.06;5052145;28;20032;-45
2021/05/15 07:34:31;;;;;;;0.63;0.63;;;;;;;26.15;28.60;92983.78;5051587;28;20025;-47
2021/05/15 07:36:56;;;;;;;0.10;0.10;;;;;;;26.13;26.71;92978.06;5052011;28;20025;-46
2021/05/15 07:39:22;;;;;;;0.45;0.20;;;;;;;25.67;26.42;92988.69;5051891;28;20108;-47
2021/05/15 07:41:47;;;;;;;2.13;0.28;;;;;;;24.93;25.89;92998.28;5051945;28;20029;-50
2021/05/15 07:44:13;;;;;;;0.30;0.20;;;;;;;23.58;29.75;92992.63;5050336;28;20047;-43
2021/05/15 07:46:38;;;;;;;0.20;0.20;;;;;;;23.60;29.78;92981.41;5050730;28;20049;-45
2021/05/15 07:49:04;;;;;;;0.60;0.50;;;;;;;23.49;30.29;92993.66;5051481;28;20024;-47
2021/05/15 07:51:29;;;;;;;0.63;0.30;;;;;;;23.25;31.71;92985.69;5051360;28;20036;-48
2021/05/15 07:53:56;;;;;;;0.82;0.50;;;;;;;23.15;30.01;92996.53;5051682;28;20068;-46
2021/05/15 07:56:21;;;;;;;0.57;0.30;;;;;;;22.46;32.29;92997.81;5049089;28;20033;-43
2021/05/15 07:58:47;;;;;;;3.92;0.50;;;;;;;22.20;33.42;93000.22;5049625;28;20021;-46
2021/05/15 08:01:13;;;;;;;0.30;0.30;;;;;;;22.08;33.87;92963.16;5049133;28;20497;-46
2021/05/15 08:03:38;;;;;;;2.38;0.45;;;;;;;22.22;33.67;92980.63;5049006;28;20037;-46
2021/05/15 08:06:03;;;;;;;2.47;1.77;;;;;;;23.31;32.39;92965.47;5049278;28;20056;-45
2021/05/15 08:08:29;;;;;;;1.30;0.38;;;;;;;23.87;29.01;92962.03;5049148;28;20116;-46
2021/05/15 08:10:55;;;;;;;1.02;0.30;;;;;;;24.26;29.78;92969.09;5049574;28;20033;-45
2021/05/15 08:13:21;;;;;;;0.60;0.20;;;;;;;24.56;29.15;92950.41;5049478;28;20036;-43
2021/05/15 08:15:46;;;;;;;2.25;0.60;;;;;;;26.13;28.27;92955.44;5049378;28;20576;-42
2021/05/15 08:18:12;;;;;;;0.20;0.20;;;;;;;26.46;25.94;92968.38;5048426;28;20490;-44
2021/05/15 08:20:38;;;;;;;0.47;0.20;;;;;;;28.13;24.36;92947.72;5048484;28;20037;-44
2021/05/15 08:23:04;;;;;;;0.60;0.40;;;;;;;29.54;23.94;92955.34;5049044;28;20457;-45
2021/05/15 08:25:29;;;;;;;0.50;0.40;;;;;;;28.99;22.53;92948.00;5048475;28;20087;-45
2021/05/15 08:27:59;;;;;;;0.10;0.05;;;;;;;29.88;22.93;92941.66;5048421;28;20059;-45
2021/05/15 08:30:28;;;;;;;1.15;0.30;;;;;;;29.68;20.39;92941.31;5046876;28;20075;-46
2021/05/15 08:32:55;;;;;;;0.38;0.38;;;;;;;28.77;22.56;92934.09;5045739;28;20589;-45
2021/05/15 08:35:22;;;;;;;2.75;0.13;;;;;;;27.64;23.27;92928.19;5048575;28;20437;-44
2021/05/15 08:37:47;;;;;;;0.25;0.20;;;;;;;26.60;23.33;92927.00;5033002;28;20060;-46
2021/05/15 08:40:14;;;;;;;0.50;0.30;;;;;;;25.08;27.07;92926.75;5028492;28;20051;-47
2021/05/15 08:42:41;;;;;;;0.77;0.47;;;;;;;25.02;27.06;92920.91;5028352;28;20033;-45
2021/05/15 08:45:14;;;;;;;1.33;0.45;;;;;;;24.59;26.40;92924.41;5038030;28;20755;-43
2021/05/15 08:47:41;;;;;;;0.40;0.30;;;;;;;23.62;29.83;92913.84;5043109;28;20040;-43
2021/05/15 08:50:10;;;;;;;0.65;0.38;;;;;;;23.68;30.22;92914.81;5046155;28;20501;-42
2021/05/15 08:52:41;;;;;;;0.50;0.50;;;;;;;25.13;28.45;92902.91;5039333;28;20576;-44
2021/05/15 08:55:11;;;;;;;0.20;0.10;;;;;;;26.55;27.83;92896.44;5009335;28;20660;-43
2021/05/15 08:57:37;;;;;;;0.70;0.28;;;;;;;28.05;24.82;92896.47;5027057;28;20029;-45
2021/05/15 09:00:23;;;;;;;0.35;0.28;;;;;;;28.77;22.40;92902.13;5027337;28;20486;-42
2021/05/15 09:02:53;;;;;;;0.65;0.10;;;;;;;28.52;23.42;92895.97;5028110;28;20025;-43
2021/05/15 09:05:20;;;;;;;0.38;0.38;;;;;;;30.04;21.75;92910.53;5034621;28;20033;-43
2021/05/15 09:07:53;;;;;;;6.85;0.40;;;;;;;29.88;21.74;92913.91;5046866;28;20029;-45
2021/05/15 09:10:22;;;;;;;0.43;0.43;;;;;;;30.05;22.62;92906.28;5047652;28;20132;-46
2021/05/15 09:12:47;;;;;;;0.57;0.30;;;;;;;30.26;21.11;92912.94;5047331;28;20439;-43
2021/05/15 09:15:15;;;;;;;0.52;0.28;;;;;;;28.87;22.60;92916.53;5047435;28;20040;-43
2021/05/15 09:17:43;;;;;;;1.10;0.35;;;;;;;28.34;22.85;92914.78;5047260;28;20102;-42
2021/05/15 09:20:09;;;;;;;;;;;;;;;27.76;24.67;92914.28;5047539;28;20040;-44
2021/05/15 09:22:34;;;;;;;1.85;0.40;;;;;;;26.82;25.42;92913.47;5047261;28;19992;-45
2021/05/15 09:25:05;;;;;;;0.50;0.40;;;;;;;26.58;25.52;92914.91;5047019;28;20021;-43
2021/05/15 09:27:35;;;;;;;1.27;0.63;;;;;;;26.01;25.62;92916.16;5047016;28;20100;-46
2021/05/15 09:30:00;;;;;;;11.55;1.00;;;;;;;25.79;26.23;92909.91;5047157;28;20158;-45
2021/05/15 09:32:34;;;;;;;0.43;0.43;;;;;;;25.53;27.46;92907.00;5045917;28;20037;-43
2021/05/15 09:35:01;;;;;;;0.30;0.30;;;;;;;25.37;28.50;92911.41;5047331;28;20090;-42
2021/05/15 09:37:37;;;;;;;2.10;0.52;;;;;;;25.02;27.70;92917.34;5046027;28;20031;-44
2021/05/15 09:40:15;;;;;;;1.13;0.60;;;;;;;24.47;27.99;92917.66;5047292;28;20410;-43
2021/05/15 09:43:07;;;;;;;0.20;0.20;;;;;;;24.60;29.47;92911.72;5045935;28;20029;-45
2021/05/15 09:45:35;;;;;;;1.00;0.20;;;;;;;24.05;29.03;92903.50;5045361;28;20521;-46
2021/05/15 09:48:01;;;;;;;0.20;0.20;;;;;;;24.42;29.17;92907.59;5047087;28;20087;-46
2021/05/15 09:50:31;;;;;;;1.08;0.45;;;;;;;24.24;29.00;92901.31;5046609;28;20029;-44
2021/05/15 09:53:08;;;;;;;0.68;0.30;;;;;;;24.09;29.67;92900.81;5046901;28;20013;-44
2021/05/15 09:55:34;;;;;;;0.20;0.20;;;;;;;23.76;30.36;92897.44;5044147;28;20029;-45
2021/05/15 09:58:03;;;;;;;1.95;0.57;;;;;;;24.17;32.12;92900.38;5046868;28;20031;-44
2021/05/15 10:00:47;;;;;;;0.60;0.60;;;;;;;24.27;29.20;92897.91;5046964;28;20021;-42
2021/05/15 10:03:20;;;;;;;0.13;0.13;;;;;;;24.66;28.46;92891.47;5045427;28;20032;-43
2021/05/15 10:05:57;;;;;;;0.47;0.47;;;;;;;24.56;28.85;92888.31;5046117;28;20033;-42
2021/05/15 10:08:22;;;;;;;1.23;0.47;;;;;;;24.24;28.71;92893.56;5041266;28;20032;-43
2021/05/15 10:10:48;;;;;;;0.22;0.22;;;;;;;23.28;30.54;92890.72;5041643;28;20037;-45
2021/05/15 10:13:14;;;;;;;0.30;0.30;;;;;;;23.00;32.63;92887.50;5044285;28;20063;-43
2021/05/15 10:15:40;;;;;;;0.77;0.30;;;;;;;22.49;32.81;92886.84;5047703;28;20052;-46
2021/05/15 10:18:05;;;;;;;1.60;0.40;;;;;;;22.50;33.82;92888.31;5045827;28;20048;-44
2021/05/15 10:20:31;;;;;;;0.88;0.30;;;;;;;22.22;33.84;92889.94;5045472;28;20087;-45
2021/05/15 10:22:56;;;;;;;0.50;0.50;;;;;;;22.04;35.50;92898.31;5046304;28;20425;-43
2021/05/15 10:25:22;;;;;;;0.30;0.30;;;;;;;22.00;34.75;92892.53;5039256;28;20410;-45
2021/05/15 10:27:47;;;;;;;0.20;0.20;;;;;;;21.52;35.50;92907.22;5044105;28;20036;-41
2021/05/15 10:30:19;;;;;;;0.80;0.75;;;;;;;21.29;36.08;92902.66;5044010;28;20025;-41
2021/05/15 10:32:58;;;;;;;2.08;0.40;;;;;;;21.04;36.56;92903.66;5041243;28;20063;-42
2021/05/15 10:35:43;;;;;;;0.65;0.40;;;;;;;20.77;36.98;92867.25;5041818;28;20024;-42
2021/05/15 10:38:13;;;;;;;0.35;0.35;;;;;;;20.84;37.33;92899.84;5042317;28;20082;-42
2021/05/15 10:40:50;;;;;;;0.90;0.43;;;;;;;20.52;39.26;92894.78;5044592;28;20074;-44
2021/05/15 10:43:35;;;;;;;1.70;0.80;;;;;;;20.55;39.21;92891.44;5044805;28;20021;-42
2021/05/15 10:46:21;;;;;;;0.73;0.45;;;;;;;20.57;40.14;92894.34;5045375;28;20525;-43
2021/05/15 10:49:08;;;;;;;2.83;0.30;;;;;;;20.68;38.25;92899.06;5046094;28;20028;-43
2021/05/15 10:51:45;;;;;;;2.30;0.32;;;;;;;20.32;39.61;92900.13;5046137;28;20112;-44
2021/05/15 10:54:16;;;;;;;1.85;1.15;;;;;;;20.10;40.63;92890.56;5048108;28;20017;-42
2021/05/15 10:56:43;;;;;;;1.67;0.32;;;;;;;20.02;40.29;92904.19;5046443;28;20029;-44
2021/05/15 10:59:20;;;;;;;1.08;0.50;;;;;;;19.92;41.14;92915.63;5048763;28;20025;-47
2021/05/15 11:01:47;;;;;;;0.40;0.40;;;;;;;19.58;41.59;92914.56;5047416;28;20470;-45
2021/05/15 11:04:17;;;;;;;5.25;0.93;;;;;;;19.42;42.33;92913.00;5049034;28;20483;-46
2021/05/15 11:06:42;;;;;;;0.30;0.30;;;;;;;19.44;42.87;92916.63;5046657;28;20346;-45
2021/05/15 11:09:10;;;;;;;0.32;0.32;;;;;;;19.16;44.76;92906.69;5049028;28;20589;-44
2021/05/15 11:11:43;;;;;;;0.63;0.55;;;;;;;19.13;45.76;92907.94;5048856;28;20025;-43
2021/05/15 11:14:32;;;;;;;0.40;0.40;;;;;;;18.78;45.66;92907.41;5046989;28;20036;-45
2021/05/15 11:17:11;;;;;;;1.35;0.50;;;;;;;18.61;46.14;92907.84;5048390;28;20020;-43
2021/05/15 11:19:47;;;;;;;1.55;0.40;;;;;;;18.60;47.74;92904.31;5048450;28;20557;-46
2021/05/15 11:22:13;;;;;;;1.98;0.40;;;;;;;18.52;47.84;92901.06;5047761;28;20409;-43
2021/05/15 11:24:38;;;;;;;0.30;0.30;;;;;;;17.90;48.90;92903.06;5030940;28;20021;-43
2021/05/15 11:27:16;;;;;;;0.30;0.30;;;;;;;17.32;51.08;92897.50;5049368;28;20017;-46
2021/05/15 11:29:43;;;;;;;0.70;0.47;;;;;;;17.15;52.39;92892.28;5049026;28;20025;-43
2021/05/15 11:32:13;;;;;;;0.45;0.45;;;;;;;16.90;52.29;92862.19;5047774;28;20033;-52
2021/05/15 11:34:40;;;;;;;0.22;0.22;;;;;;;16.86;52.05;92880.72;5049335;28;20021;-47
2021/05/15 11:37:08;;;;;;;0.70;0.40;;;;;;;16.88;52.26;92887.16;5049901;28;20126;-44